createdAt,value
2023-05-06T14:31:17.185Z,95431.69
2023-05-06T14:34:43.137Z,95436.13
2023-05-06T14:38:07.125Z,95433.66
2023-05-06T14:41:31.265Z,95436.03
2023-05-06T14:44:55.311Z,95429.41
2023-05-06T14:48:18.676Z,95425.81
2023-05-06T14:51:42.246Z,95422.78
2023-05-06T14:55:05.957Z,95423.13
2023-05-06T14:58:29.776Z,95427.34
2023-05-06T15:01:53.781Z,95427.41
2023-05-06T15:05:17.843Z,95420.75
2023-05-06T15:08:41.601Z,95423.88
2023-05-06T15:12:05.056Z,95415.25
2023-05-06T15:15:28.550Z,95429.69
2023-05-06T15:18:52.703Z,95425.63
2023-05-06T15:22:16.610Z,95436.47
2023-05-06T15:25:41.272Z,95439.34
2023-05-06T15:29:06.629Z,95437.34
2023-05-06T15:32:31.495Z,95437.75
2023-05-06T15:35:55.079Z,95436.81
2023-05-06T15:39:18.417Z,95444.56
2023-05-06T15:42:43.352Z,95443.06
2023-05-06T15:46:08.829Z,95445.19
2023-05-06T15:49:51.593Z,95450.63
2023-05-06T15:53:16.275Z,95440.25
2023-05-06T15:56:41.664Z,95439.03
2023-05-06T16:00:05.811Z,95438.59
2023-05-06T16:03:30.959Z,95442.50
2023-05-06T16:06:56.495Z,95444.88
2023-05-06T16:10:19.919Z,95454.16
2023-05-06T16:13:43.783Z,95448.34
2023-05-06T16:17:07.390Z,95446.59
2023-05-06T16:20:32.917Z,95452.22
2023-05-06T16:23:56.402Z,95457.59
2023-05-06T16:27:21.254Z,95465.31
2023-05-06T16:30:46.718Z,95470.97
2023-05-06T16:34:10.889Z,95477.13
2023-05-06T16:37:36.679Z,95482.75
2023-05-06T16:41:00.338Z,95485.34
2023-05-06T16:44:24.012Z,95494.56
2023-05-06T16:47:48.940Z,95497.13
2023-05-06T16:51:16.021Z,95491.75
2023-05-06T16:54:39.811Z,95495.38
2023-05-06T16:58:04.391Z,95494.06
2023-05-06T17:01:28.225Z,95500.75
2023-05-06T17:04:52.328Z,95503.28
2023-05-06T17:08:16.307Z,95516.84
2023-05-06T17:11:41.585Z,95520.44
2023-05-06T17:15:05.380Z,95517.88
2023-05-06T17:18:29.064Z,95519.69
2023-05-06T17:21:52.952Z,95531.66
2023-05-06T17:25:16.569Z,95542.91
2023-05-06T17:28:40.839Z,95541.91
2023-05-06T17:32:04.123Z,95539.31
2023-05-06T17:35:28.285Z,95543.69
2023-05-06T17:38:52.953Z,95549.56
2023-05-06T17:42:17.241Z,95548.53
2023-05-06T17:45:42.948Z,95552.34
2023-05-06T17:49:07.254Z,95556.44
2023-05-06T17:52:31.866Z,95559.50
2023-05-06T17:55:57.805Z,95564.09
2023-05-06T17:59:22.225Z,95571.25
2023-05-06T18:02:48.188Z,95575.56
2023-05-06T18:06:15.413Z,95568.66
2023-05-06T18:09:41.092Z,95564.31
2023-05-06T18:13:07.948Z,95562.78
2023-05-06T18:16:34.555Z,95580.16
2023-05-06T18:20:02.577Z,95578.59
2023-05-06T18:23:31.206Z,95585.72
2023-05-06T18:26:57.343Z,95579.84
2023-05-06T18:30:22.893Z,95586.47
2023-05-06T18:33:48.722Z,95573.94
2023-05-06T18:37:15.163Z,95567.81
2023-05-06T18:40:41.812Z,95571.63
2023-05-06T18:44:09.653Z,95564.75
2023-05-06T18:47:38.230Z,95573.66
2023-05-06T18:50:44.795Z,95578.47
2023-05-06T18:54:10.660Z,95571.09
2023-05-06T18:57:36.079Z,95572.09
2023-05-06T19:01:01.898Z,95577.19
2023-05-06T19:04:26.355Z,95573.59
2023-05-06T19:07:50.781Z,95573.59
2023-05-06T19:11:14.264Z,95589.38
2023-05-06T19:14:38.123Z,95595.78
2023-05-06T19:18:02.844Z,95594.22
2023-05-06T19:21:28.249Z,95600.31
2023-05-06T19:24:51.757Z,95600.06
2023-05-06T19:28:17.196Z,95599.03
2023-05-06T19:31:40.581Z,95595.97
2023-05-06T19:35:08.798Z,95605.13
2023-05-06T19:38:33.171Z,95603.53
2023-05-06T19:41:58.712Z,95596.94
2023-05-06T19:45:23.606Z,95600.97
2023-05-06T19:48:46.887Z,95579.81
2023-05-06T19:52:10.899Z,95599.19
2023-05-06T19:55:34.906Z,95628.22
2023-05-06T19:58:58.522Z,95635.91
2023-05-06T20:02:23.706Z,95618.53
2023-05-06T20:05:47.335Z,95617.53
2023-05-06T20:09:11.301Z,95622.38
2023-05-06T20:12:35.346Z,95622.84
2023-05-06T20:15:59.267Z,95618.22
2023-05-06T20:19:26.601Z,95624.09
2023-05-06T20:22:51.521Z,95629.41
2023-05-06T20:26:15.668Z,95634.78
2023-05-06T20:29:39.206Z,95636.31
2023-05-06T20:33:02.800Z,95638.13
2023-05-06T20:36:27.104Z,95628.44
2023-05-06T20:39:50.413Z,95636.34
2023-05-06T20:43:13.856Z,95625.66
2023-05-06T20:46:37.667Z,95637.34
2023-05-06T20:50:01.928Z,95622.84
2023-05-06T20:53:27.621Z,95638.13
2023-05-06T20:56:50.720Z,95632.22
2023-05-06T21:00:14.978Z,95639.88
2023-05-06T21:03:38.701Z,95639.88
2023-05-06T21:07:02.356Z,95641.91
2023-05-06T21:10:25.790Z,95653.38
2023-05-06T21:13:50.260Z,95655.69
2023-05-06T21:17:14.122Z,95658.97
2023-05-06T21:20:38.077Z,95667.13
2023-05-06T21:24:01.722Z,95658.97
2023-05-06T21:27:26.670Z,95670.97
2023-05-06T21:30:50.282Z,95670.19
2023-05-06T21:34:13.948Z,95664.59
2023-05-06T21:37:37.262Z,95657.44
2023-05-06T21:41:00.867Z,95652.63
2023-05-06T21:44:24.801Z,95650.84
2023-05-06T21:47:49.056Z,95641.97
2023-05-06T21:51:12.781Z,95647.03
2023-05-06T21:54:36.569Z,95650.38
2023-05-06T21:58:00.213Z,95653.69
2023-05-06T22:01:26.386Z,95654.47
2023-05-06T22:04:49.964Z,95651.91
2023-05-06T22:08:14.014Z,95659.06
2023-05-06T22:11:40.780Z,95659.78
2023-05-06T22:15:04.481Z,95674.84
2023-05-06T22:18:30.237Z,95684.00
2023-05-06T22:21:54.084Z,95684.03
2023-05-06T22:25:17.490Z,95689.94
2023-05-06T22:28:41.060Z,95686.59
2023-05-06T22:32:04.319Z,95687.09
2023-05-06T22:35:27.891Z,95679.94
2023-05-06T22:38:51.320Z,95677.41
2023-05-06T22:42:15.039Z,95672.34
2023-05-06T22:45:38.693Z,95663.94
2023-05-06T22:49:03.685Z,95647.84
2023-05-06T22:52:27.375Z,95637.66
2023-05-06T22:55:51.135Z,95628.50
2023-05-06T22:59:14.454Z,95624.97
2023-05-06T23:02:39.395Z,95620.91
2023-05-06T23:06:04.775Z,95610.94
2023-05-06T23:09:28.501Z,95604.31
2023-05-06T23:12:53.494Z,95589.44
2023-05-06T23:16:18.929Z,95593.28
2023-05-06T23:19:44.055Z,95573.88
2023-05-06T23:23:10.909Z,95563.63
2023-05-06T23:26:34.330Z,95593.69
2023-05-06T23:29:59.336Z,95601.53
2023-05-06T23:33:23.917Z,95600.25
2023-05-06T23:36:47.345Z,95599.00
2023-05-06T23:40:12.881Z,95596.44
2023-05-06T23:43:36.666Z,95593.88
2023-05-06T23:47:02.034Z,95603.06
2023-05-06T23:50:25.459Z,95603.78
2023-05-06T23:53:49.383Z,95588.03
2023-05-06T23:57:13.233Z,95588.03
